^^
Your Local Weather - Clay, NY Station Historical Data
Daily Summary for July 18, 2017 Units:  English    Metric   Both
« Previous Day
Next Day »
Daily Weekly Monthly Yearly Custom
  High: Low: Average:
Temperature: 83.9 °F 61.7 °F 71 °F
Dew Point: 70.1 °F 60.0 °F 63.9 °F
Humidity: 95% 51% 80%
Wind Speed: 4.0mph 0.0mph 0.7mph
Wind Gust: 6.0mph - -
Wind- - SSW
Pressure: 30.06 in 29.98 in -
Precipitation: 0.00 in    
Historical Graphs
 
 
Tabular Data for July 18, 2017
Time Temperature Dew Point Pressure Wind Wind Speed Wind Gust Humidity Rainfall Rate (Hourly) solar
00:02 66.5 °F 64.1 °F 29.99 in Calm     92% 0.00 in 0 W/m2
00:08 66.5 °F 64.1 °F 29.99 in Calm     92% 0.00 in 0 W/m2
00:14 66.4 °F 64.0 °F 29.99 in Calm     92% 0.00 in 0 W/m2
00:20 66.2 °F 64.1 °F 29.99 in Calm     93% 0.00 in 0 W/m2
00:26 66.1 °F 64.0 °F 29.99 in Calm     93% 0.00 in 0 W/m2
00:32 65.7 °F 63.3 °F 30.00 in Calm     92% 0.00 in 0 W/m2
00:38 65.6 °F 63.5 °F 30.00 in Calm     93% 0.00 in 0 W/m2
00:44 65.5 °F 63.4 °F 30.00 in Calm   2.0 mph 93% 0.00 in 0 W/m2
00:50 65.5 °F 63.4 °F 30.00 in Calm     93% 0.00 in 0 W/m2
00:56 65.3 °F 63.2 °F 30.00 in Calm     93% 0.00 in 0 W/m2
01:02 65.2 °F 63.1 °F 30.00 in Calm     93% 0.00 in 0 W/m2
01:08 65.2 °F 63.1 °F 30.00 in Calm     93% 0.00 in 0 W/m2
01:14 65.1 °F 63.0 °F 30.00 in Calm     93% 0.00 in 0 W/m2
01:20 64.9 °F 62.8 °F 30.00 in Calm     93% 0.00 in 0 W/m2
01:26 64.7 °F 62.6 °F 30.00 in Calm     93% 0.00 in 0 W/m2
01:32 64.7 °F 62.6 °F 30.00 in Calm     93% 0.00 in 0 W/m2
01:38 64.5 °F 62.4 °F 30.00 in Calm     93% 0.00 in 0 W/m2
01:44 64.5 °F 62.4 °F 30.00 in Calm     93% 0.00 in 0 W/m2
01:50 64.3 °F 62.2 °F 30.00 in Calm     93% 0.00 in 0 W/m2
01:56 64.3 °F 62.2 °F 29.99 in Calm     93% 0.00 in 0 W/m2
02:02 64.2 °F 62.1 °F 30.00 in Calm     93% 0.00 in 0 W/m2
02:08 64.3 °F 62.5 °F 30.00 in Calm     94% 0.00 in 0 W/m2
02:14 64.3 °F 62.5 °F 30.00 in Calm     94% 0.00 in 0 W/m2
02:20 64.2 °F 62.4 °F 29.99 in Calm     94% 0.00 in 0 W/m2
02:26 64.1 °F 62.3 °F 29.99 in Calm     94% 0.00 in 0 W/m2
02:32 64.2 °F 62.4 °F 29.99 in Calm     94% 0.00 in 0 W/m2
02:38 64.3 °F 62.5 °F 29.99 in Calm     94% 0.00 in 0 W/m2
02:44 64.3 °F 62.5 °F 30.00 in Calm     94% 0.00 in 0 W/m2
02:50 64.5 °F 62.7 °F 30.00 in Calm     94% 0.00 in 0 W/m2
02:56 64.5 °F 62.7 °F 30.00 in Calm     94% 0.00 in 0 W/m2
03:02 64.5 °F 62.7 °F 30.00 in Calm     94% 0.00 in 0 W/m2
03:08 64.5 °F 62.7 °F 30.00 in Calm     94% 0.00 in 0 W/m2
03:14 64.5 °F 62.7 °F 30.00 in Calm     94% 0.00 in 0 W/m2
03:20 64.4 °F 62.6 °F 30.00 in Calm     94% 0.00 in 0 W/m2
03:26 64.5 °F 62.7 °F 30.00 in Calm     94% 0.00 in 0 W/m2
03:32 64.7 °F 62.9 °F 30.00 in Calm     94% 0.00 in 0 W/m2
03:38 64.7 °F 62.9 °F 30.00 in Calm     94% 0.00 in 0 W/m2
03:44 64.8 °F 63.0 °F 30.00 in Calm   1.0 mph 94% 0.00 in 0 W/m2
03:50 64.7 °F 62.9 °F 30.00 in Calm     94% 0.00 in 0 W/m2
03:56 64.6 °F 62.8 °F 30.00 in Calm     94% 0.00 in 0 W/m2
04:02 64.5 °F 62.7 °F 30.00 in Calm     94% 0.00 in 0 W/m2
04:08 64.3 °F 62.5 °F 30.00 in Calm     94% 0.00 in 0 W/m2
04:14 64.1 °F 62.3 °F 30.00 in Calm   1.0 mph 94% 0.00 in 0 W/m2
04:22 63.7 °F 61.9 °F 30.00 in Calm     94% 0.00 in 0 W/m2
04:28 63.5 °F 61.7 °F 30.00 in Calm     94% 0.00 in 0 W/m2
04:34 63.3 °F 61.5 °F 30.01 in Calm     94% 0.00 in 0 W/m2
04:40 63.1 °F 61.3 °F 30.00 in Calm     94% 0.00 in 0 W/m2
04:46 63.0 °F 61.2 °F 30.01 in Calm     94% 0.00 in 0 W/m2
04:52 62.8 °F 61.0 °F 30.01 in Calm     94% 0.00 in 0 W/m2
04:58 62.6 °F 60.8 °F 30.01 in Calm     94% 0.00 in 0 W/m2
05:04 62.4 °F 60.7 °F 30.01 in Calm     94% 0.00 in 0 W/m2
05:10 62.2 °F 60.5 °F 30.02 in Calm     94% 0.00 in 0 W/m2
05:16 62.2 °F 60.5 °F 30.02 in Calm     94% 0.00 in 0 W/m2
05:22 62.1 °F 60.4 °F 30.02 in Calm     94% 0.00 in 0 W/m2
05:28 61.7 °F 60.0 °F 30.02 in Calm     94% 0.00 in 0 W/m2
05:34 61.7 °F 60.0 °F 30.02 in Calm     94% 0.00 in 0 W/m2
05:40 61.8 °F 60.4 °F 30.02 in Calm     95% 0.00 in 0 W/m2
05:46 61.8 °F 60.4 °F 30.02 in Calm     95% 0.00 in 5 W/m2
05:52 61.9 °F 60.5 °F 30.02 in Calm     95% 0.00 in 7 W/m2
05:58 62.2 °F 60.5 °F 30.02 in Calm     94% 0.00 in 11 W/m2
06:04 62.2 °F 60.5 °F 30.03 in Calm     94% 0.00 in 12 W/m2
06:10 62.3 °F 60.8 °F 30.03 in Calm     95% 0.00 in 14 W/m2
06:16 62.4 °F 60.9 °F 30.03 in Calm     95% 0.00 in 14 W/m2
06:22 62.4 °F 60.9 °F 30.02 in Calm   1.0 mph 95% 0.00 in 16 W/m2
06:28 62.4 °F 60.9 °F 30.03 in Calm   1.0 mph 95% 0.00 in 26 W/m2
06:34 62.4 °F 60.9 °F 30.03 in Calm     95% 0.00 in 33 W/m2
06:40 62.5 °F 61.0 °F 30.04 in Calm     95% 0.00 in 32 W/m2
06:46 62.5 °F 61.0 °F 30.04 in Calm     95% 0.00 in 44 W/m2
06:52 62.5 °F 61.0 °F 30.04 in Calm     95% 0.00 in 49 W/m2
06:58 62.7 °F 61.2 °F 30.05 in Calm     95% 0.00 in 62 W/m2
07:04 62.8 °F 61.3 °F 30.05 in Calm     95% 0.00 in 67 W/m2
07:10 62.9 °F 61.4 °F 30.05 in Calm     95% 0.00 in 70 W/m2
07:16 63.1 °F 61.6 °F 30.05 in Calm     95% 0.00 in 84 W/m2
07:22 63.5 °F 62.0 °F 30.05 in Calm     95% 0.00 in 91 W/m2
07:28 63.7 °F 62.2 °F 30.05 in Calm     95% 0.00 in 91 W/m2
07:34 63.9 °F 62.4 °F 30.05 in Calm     95% 0.00 in 105 W/m2
07:40 64.1 °F 62.6 °F 30.05 in Calm     95% 0.00 in 118 W/m2
07:46 64.2 °F 62.7 °F 30.05 in Calm     95% 0.00 in 107 W/m2
07:52 64.3 °F 62.8 °F 30.05 in Calm     95% 0.00 in 165 W/m2
07:58 64.4 °F 62.9 °F 30.05 in Calm   2.0 mph 95% 0.00 in 202 W/m2
08:04 64.6 °F 63.1 °F 30.05 in Calm   1.0 mph 95% 0.00 in 127 W/m2
08:10 64.7 °F 63.2 °F 30.05 in ESE 1.0 mph 1.0 mph 95% 0.00 in 281 W/m2
08:16 64.7 °F 63.2 °F 30.05 in ESE 1.0 mph 2.0 mph 95% 0.00 in 149 W/m2
08:22 64.9 °F 63.4 °F 30.05 in Calm   1.0 mph 95% 0.00 in 162 W/m2
08:28 64.9 °F 63.4 °F 30.05 in ESE 1.0 mph 2.0 mph 95% 0.00 in 197 W/m2
08:34 64.9 °F 63.4 °F 30.06 in ESE 1.0 mph 2.0 mph 95% 0.00 in 237 W/m2
08:40 65.2 °F 63.7 °F 30.06 in ESE 1.0 mph 1.0 mph 95% 0.00 in 292 W/m2
08:46 65.7 °F 64.2 °F 30.06 in Calm   1.0 mph 95% 0.00 in 216 W/m2
08:52 65.8 °F 64.3 °F 30.06 in Calm     95% 0.00 in 260 W/m2
08:58 65.9 °F 64.4 °F 30.06 in Calm     95% 0.00 in 237 W/m2
09:04 66.1 °F 64.6 °F 30.06 in ESE 1.0 mph 2.0 mph 95% 0.00 in 468 W/m2
09:10 67.2 °F 65.7 °F 30.06 in NE 1.0 mph 2.0 mph 95% 0.00 in 712 W/m2
09:16 66.9 °F 65.4 °F 30.05 in NE 1.0 mph 2.0 mph 95% 0.00 in 267 W/m2
09:22 67.2 °F 65.7 °F 30.06 in Calm   1.0 mph 95% 0.00 in 306 W/m2
09:28 67.5 °F 65.7 °F 30.06 in Calm   1.0 mph 94% 0.00 in 281 W/m2
09:32 67.5 °F 65.7 °F 30.06 in NE 1.0 mph 1.0 mph 94% 0.00 in 359 W/m2
09:38 67.9 °F 65.8 °F 30.06 in NE 1.0 mph 3.0 mph 93% 0.00 in 221 W/m2
09:44 68.3 °F 66.2 °F 30.06 in NE 1.0 mph 1.0 mph 93% 0.00 in 229 W/m2
09:50 68.4 °F 65.7 °F 30.05 in NE 1.0 mph 1.0 mph 91% 0.00 in 264 W/m2
09:56 68.7 °F 66.0 °F 30.05 in NE 1.0 mph 2.0 mph 91% 0.00 in 253 W/m2
10:02 69.0 °F 65.6 °F 30.05 in NE 1.0 mph 4.0 mph 89% 0.00 in 330 W/m2
10:08 69.7 °F 66.3 °F 30.05 in NE 1.0 mph 4.0 mph 89% 0.00 in 455 W/m2
10:14 70.1 °F 66.4 °F 30.06 in NE 1.0 mph 1.0 mph 88% 0.00 in 397 W/m2
10:20 70.6 °F 66.2 °F 30.05 in Calm     86% 0.00 in 355 W/m2
10:26 71.2 °F 66.5 °F 30.05 in NNW 1.0 mph 2.0 mph 85% 0.00 in 297 W/m2
10:32 71.5 °F 66.1 °F 30.06 in NNW 1.0 mph 2.0 mph 83% 0.00 in 313 W/m2
10:38 71.7 °F 66.3 °F 30.06 in NNW 1.0 mph 2.0 mph 83% 0.00 in 406 W/m2
10:44 72.9 °F 66.7 °F 30.06 in North 1.0 mph 1.0 mph 81% 0.00 in 944 W/m2
10:50 73.7 °F 67.1 °F 30.06 in North 2.0 mph 2.0 mph 80% 0.00 in 960 W/m2
10:56 73.7 °F 66.4 °F 30.06 in NE 2.0 mph 3.0 mph 78% 0.00 in 475 W/m2
11:02 72.7 °F 66.5 °F 30.05 in NNW 3.0 mph 3.0 mph 81% 0.00 in 323 W/m2
11:08 73.6 °F 67.4 °F 30.05 in North 2.0 mph 4.0 mph 81% 0.00 in 965 W/m2
11:14 73.9 °F 66.6 °F 30.05 in North 2.0 mph 4.0 mph 78% 0.00 in 251 W/m2
11:20 73.3 °F 66.0 °F 30.05 in North 2.0 mph 2.0 mph 78% 0.00 in 199 W/m2
11:26 74.0 °F 66.7 °F 30.05 in NNE 1.0 mph 2.0 mph 78% 0.00 in 937 W/m2
11:32 74.1 °F 66.4 °F 30.05 in ENE 1.0 mph 2.0 mph 77% 0.00 in 925 W/m2
11:38 75.4 °F 66.9 °F 30.05 in NE 1.0 mph 3.0 mph 75% 0.00 in 849 W/m2
11:44 74.9 °F 66.8 °F 30.05 in ENE 2.0 mph 3.0 mph 76% 0.00 in 923 W/m2
11:50 75.8 °F 66.1 °F 30.05 in ENE 1.0 mph 1.0 mph 72% 0.00 in 976 W/m2
11:56 76.9 °F 66.8 °F 30.05 in NNE 1.0 mph 2.0 mph 71% 0.00 in 1020 W/m2
12:02 76.9 °F 67.2 °F 30.05 in NNW 2.0 mph 3.0 mph 72% 0.00 in 988 W/m2
12:08 77.0 °F 65.6 °F 30.05 in North 2.0 mph 6.0 mph 68% 0.00 in 371 W/m2
12:14 75.7 °F 65.2 °F 30.05 in South 2.0 mph 2.0 mph 70% 0.00 in 264 W/m2
12:20 76.0 °F 65.5 °F 30.05 in South 1.0 mph 1.0 mph 70% 0.00 in 1032 W/m2
12:26 77.1 °F 68.9 °F 30.04 in South 1.0 mph 3.0 mph 76% 0.00 in 993 W/m2
12:32 78.5 °F 67.5 °F 30.05 in South 1.0 mph 1.0 mph 69% 0.00 in 1005 W/m2
12:38 78.5 °F 66.2 °F 30.05 in West 1.0 mph 2.0 mph 66% 0.00 in 1049 W/m2
12:44 79.7 °F 66.0 °F 30.05 in NNE 1.0 mph 4.0 mph 63% 0.00 in 1132 W/m2
12:50 78.5 °F 65.8 °F 30.04 in North 2.0 mph 2.0 mph 65% 0.00 in 1042 W/m2
12:56 78.2 °F 66.8 °F 30.04 in North 1.0 mph 2.0 mph 68% 0.00 in 972 W/m2
13:02 79.3 °F 69.5 °F 30.03 in Calm   3.0 mph 72% 0.00 in 953 W/m2
13:08 80.4 °F 68.4 °F 30.03 in SW 1.0 mph 3.0 mph 67% 0.00 in 1009 W/m2
13:14 80.4 °F 70.1 °F 30.03 in NNW 1.0 mph 1.0 mph 71% 0.00 in 990 W/m2
13:20 79.3 °F 65.6 °F 30.03 in NNW 1.0 mph 1.0 mph 63% 0.00 in 257 W/m2
13:26 78.6 °F 66.3 °F 30.02 in SE 1.0 mph 3.0 mph 66% 0.00 in 997 W/m2
13:32 79.8 °F 66.5 °F 30.03 in NW 1.0 mph 2.0 mph 64% 0.00 in 991 W/m2
13:38 80.3 °F 66.6 °F 30.02 in NW 1.0 mph 3.0 mph 63% 0.00 in 1021 W/m2
13:44 81.1 °F 69.5 °F 30.02 in NW 1.0 mph 5.0 mph 68% 0.00 in 1086 W/m2
13:46 80.8 °F 64.1 °F 30.02 in NW 1.0 mph 5.0 mph 57% 0.00 in 1069 W/m2
13:52 80.1 °F 65.0 °F 30.02 in SW 1.0 mph 2.0 mph 60% 0.00 in 1013 W/m2
13:58 80.4 °F 66.6 °F 30.02 in South 2.0 mph 2.0 mph 63% 0.00 in 995 W/m2
14:04 81.2 °F 67.4 °F 30.02 in West 2.0 mph 2.0 mph 63% 0.00 in 1042 W/m2
14:10 81.0 °F 66.3 °F 30.02 in West 1.0 mph 1.0 mph 61% 0.00 in 986 W/m2
14:16 81.1 °F 65.4 °F 30.02 in WSW 1.0 mph 5.0 mph 59% 0.00 in 969 W/m2
14:22 82.1 °F 64.8 °F 30.01 in SW 1.0 mph 1.0 mph 56% 0.00 in 944 W/m2
14:28 81.4 °F 64.2 °F 30.01 in SW 2.0 mph 2.0 mph 56% 0.00 in 896 W/m2
14:34 81.7 °F 64.5 °F 30.01 in SSW 2.0 mph 5.0 mph 56% 0.00 in 960 W/m2
14:40 81.8 °F 66.1 °F 30.00 in NNW 2.0 mph 3.0 mph 59% 0.00 in 988 W/m2
14:46 82.2 °F 67.4 °F 30.00 in West 1.0 mph 3.0 mph 61% 0.00 in 1007 W/m2
14:52 83.0 °F 64.6 °F 30.00 in NNW 1.0 mph 1.0 mph 54% 0.00 in 988 W/m2
14:58 82.1 °F 63.3 °F 30.00 in North 1.0 mph 4.0 mph 53% 0.00 in 960 W/m2
15:04 81.8 °F 63.5 °F 30.00 in WSW 3.0 mph 3.0 mph 54% 0.00 in 893 W/m2
15:10 80.8 °F 63.6 °F 30.00 in SSW 2.0 mph 2.0 mph 56% 0.00 in 399 W/m2
15:16 81.4 °F 65.2 °F 30.00 in North 1.0 mph 2.0 mph 58% 0.00 in 953 W/m2
15:22 83.0 °F 64.1 °F 30.00 in NW 1.0 mph 1.0 mph 53% 0.00 in 932 W/m2
15:28 82.9 °F 65.1 °F 30.00 in SW 1.0 mph 2.0 mph 55% 0.00 in 881 W/m2
15:34 83.6 °F 65.7 °F 30.00 in SW 1.0 mph 4.0 mph 55% 0.00 in 909 W/m2
15:40 83.9 °F 66.5 °F 30.00 in North 1.0 mph 1.0 mph 56% 0.00 in 861 W/m2
15:46 82.8 °F 65.5 °F 30.00 in North 2.0 mph 4.0 mph 56% 0.00 in 304 W/m2
15:52 82.6 °F 64.3 °F 29.99 in SW 2.0 mph 2.0 mph 54% 0.00 in 712 W/m2
15:58 82.8 °F 62.8 °F 29.99 in NNW 2.0 mph 2.0 mph 51% 0.00 in 772 W/m2
16:06 83.0 °F 65.2 °F 29.99 in SSW 2.0 mph 4.0 mph 55% 0.00 in 740 W/m2
16:12 82.7 °F 62.7 °F 29.99 in WSW 2.0 mph 2.0 mph 51% 0.00 in 719 W/m2
16:18 82.7 °F 62.7 °F 29.99 in WSW 1.0 mph 2.0 mph 51% 0.00 in 715 W/m2
16:24 82.7 °F 64.9 °F 29.99 in North 1.0 mph 1.0 mph 55% 0.00 in 687 W/m2
16:30 83.0 °F 64.1 °F 29.99 in NW 1.0 mph 1.0 mph 53% 0.00 in 617 W/m2
16:36 82.8 °F 63.9 °F 29.99 in SW 1.0 mph 3.0 mph 53% 0.00 in 86 W/m2
16:42 82.7 °F 63.3 °F 29.99 in WSW 1.0 mph 3.0 mph 52% 0.00 in 635 W/m2
16:48 82.9 °F 64.0 °F 29.99 in WSW 1.0 mph 3.0 mph 53% 0.00 in 559 W/m2
16:54 83.2 °F 63.7 °F 29.99 in WSW 1.0 mph 5.0 mph 52% 0.00 in 599 W/m2
17:00 83.0 °F 63.0 °F 29.99 in NNW 1.0 mph 2.0 mph 51% 0.00 in 271 W/m2
17:06 82.2 °F 62.3 °F 29.99 in North 2.0 mph 4.0 mph 51% 0.00 in 77 W/m2
17:12 81.8 °F 63.0 °F 29.99 in West 2.0 mph 2.0 mph 53% 0.00 in 72 W/m2
17:18 81.8 °F 63.0 °F 29.99 in Calm   2.0 mph 53% 0.00 in 62 W/m2
17:24 81.9 °F 62.5 °F 29.99 in Calm     52% 0.00 in 60 W/m2
17:30 81.8 °F 64.1 °F 29.99 in NNW 1.0 mph 2.0 mph 55% 0.00 in 60 W/m2
17:36 80.8 °F 65.6 °F 29.99 in NW 3.0 mph 6.0 mph 60% 0.00 in 58 W/m2
17:42 80.1 °F 65.0 °F 29.99 in NW 4.0 mph 5.0 mph 60% 0.00 in 58 W/m2
17:48 79.5 °F 65.3 °F 29.98 in North 4.0 mph 6.0 mph 62% 0.00 in 54 W/m2
17:54 79.1 °F 65.4 °F 29.98 in North 4.0 mph 6.0 mph 63% 0.00 in 54 W/m2
18:00 79.0 °F 65.3 °F 29.98 in NNW 4.0 mph 4.0 mph 63% 0.00 in 54 W/m2
18:06 79.0 °F 65.3 °F 29.98 in North 4.0 mph 4.0 mph 63% 0.00 in 53 W/m2
18:12 78.8 °F 65.1 °F 29.98 in WNW 3.0 mph 5.0 mph 63% 0.00 in 53 W/m2
18:18 78.7 °F 65.5 °F 29.99 in WNW 3.0 mph 5.0 mph 64% 0.00 in 51 W/m2
18:24 78.5 °F 64.9 °F 29.99 in NW 3.0 mph 4.0 mph 63% 0.00 in 49 W/m2
18:32 78.4 °F 64.8 °F 29.99 in NNW 3.0 mph 3.0 mph 63% 0.00 in 47 W/m2
18:38 78.3 °F 65.1 °F 29.99 in North 3.0 mph 3.0 mph 64% 0.00 in 44 W/m2
18:44 78.2 °F 64.6 °F 29.99 in NNW 2.0 mph 3.0 mph 63% 0.00 in 42 W/m2
18:50 78.1 °F 64.9 °F 29.99 in NW 2.0 mph 4.0 mph 64% 0.00 in 40 W/m2
18:56 77.9 °F 64.7 °F 29.99 in WNW 3.0 mph 4.0 mph 64% 0.00 in 39 W/m2
19:02 77.7 °F 64.1 °F 29.99 in WNW 3.0 mph 4.0 mph 63% 0.00 in 37 W/m2
19:08 77.5 °F 63.9 °F 29.99 in NNW 2.0 mph 4.0 mph 63% 0.00 in 42 W/m2
19:14 77.5 °F 64.4 °F 29.99 in North 2.0 mph 3.0 mph 64% 0.00 in 35 W/m2
19:20 77.3 °F 64.2 °F 29.99 in North 1.0 mph 1.0 mph 64% 0.00 in 33 W/m2
19:26 77.2 °F 64.1 °F 29.99 in NNE 1.0 mph 4.0 mph 64% 0.00 in 32 W/m2
19:32 77.0 °F 64.3 °F 29.99 in NNE 1.0 mph 1.0 mph 65% 0.00 in 30 W/m2
19:38 76.9 °F 64.7 °F 29.99 in Calm   1.0 mph 66% 0.00 in 28 W/m2
19:44 76.8 °F 64.6 °F 29.99 in NNE 1.0 mph 1.0 mph 66% 0.00 in 32 W/m2
19:50 76.6 °F 65.2 °F 29.99 in Calm     68% 0.00 in 25 W/m2
19:56 76.2 °F 65.7 °F 29.99 in Calm     70% 0.00 in 25 W/m2
20:02 75.6 °F 64.7 °F 29.99 in Calm   1.0 mph 69% 0.00 in 21 W/m2
20:08 75.3 °F 66.0 °F 30.00 in Calm   1.0 mph 73% 0.00 in 18 W/m2
20:14 74.9 °F 66.1 °F 30.00 in Calm     74% 0.00 in 16 W/m2
20:20 74.4 °F 65.6 °F 30.00 in Calm     74% 0.00 in 12 W/m2
20:26 74.0 °F 65.2 °F 30.00 in Calm     74% 0.00 in 11 W/m2
20:32 73.5 °F 65.1 °F 30.00 in Calm     75% 0.00 in 7 W/m2
20:38 72.9 °F 64.9 °F 30.00 in Calm     76% 0.00 in 0 W/m2
20:44 72.1 °F 64.5 °F 30.00 in Calm     77% 0.00 in 0 W/m2
20:50 71.6 °F 64.0 °F 30.00 in Calm     77% 0.00 in 0 W/m2
20:56 71.3 °F 64.4 °F 30.00 in Calm     79% 0.00 in 0 W/m2
21:03 70.8 °F 64.0 °F 30.00 in Calm     79% 0.00 in 0 W/m2
21:04 70.7 °F 64.2 °F 30.00 in Calm     80% 0.00 in 0 W/m2
21:10 70.2 °F 64.1 °F 30.00 in Calm     81% 0.00 in 0 W/m2
21:16 69.8 °F 63.7 °F 30.00 in Calm     81% 0.00 in 0 W/m2
21:22 69.3 °F 63.9 °F 30.01 in Calm     83% 0.00 in 0 W/m2
21:28 69.0 °F 64.0 °F 30.01 in Calm     84% 0.00 in 0 W/m2
21:34 68.7 °F 63.7 °F 30.01 in Calm     84% 0.00 in 0 W/m2
21:40 68.4 °F 63.4 °F 30.01 in Calm     84% 0.00 in 0 W/m2
21:46 68.1 °F 63.4 °F 30.01 in Calm     85% 0.00 in 0 W/m2
21:52 67.8 °F 63.1 °F 30.01 in Calm     85% 0.00 in 0 W/m2
21:58 67.6 °F 63.3 °F 30.01 in Calm     86% 0.00 in 0 W/m2
22:04 67.3 °F 63.3 °F 30.01 in Calm     87% 0.00 in 0 W/m2
22:10 67.2 °F 63.2 °F 30.01 in Calm     87% 0.00 in 0 W/m2
22:16 66.9 °F 62.9 °F 30.01 in Calm     87% 0.00 in 0 W/m2
22:22 66.7 °F 63.0 °F 30.01 in Calm     88% 0.00 in 0 W/m2
22:28 66.5 °F 62.8 °F 30.01 in Calm     88% 0.00 in 0 W/m2
22:34 66.3 °F 62.6 °F 30.01 in Calm     88% 0.00 in 0 W/m2
22:40 66.1 °F 62.4 °F 30.01 in Calm     88% 0.00 in 0 W/m2
22:46 65.9 °F 62.6 °F 30.01 in Calm     89% 0.00 in 0 W/m2
22:52 65.8 °F 62.5 °F 30.01 in Calm     89% 0.00 in 0 W/m2
22:58 65.6 °F 62.6 °F 30.01 in Calm     90% 0.00 in 0 W/m2
23:04 65.5 °F 62.5 °F 30.01 in Calm     90% 0.00 in 0 W/m2
23:10 65.4 °F 62.4 °F 30.01 in Calm     90% 0.00 in 0 W/m2
23:16 65.2 °F 62.2 °F 30.01 in Calm     90% 0.00 in 0 W/m2
23:22 65.1 °F 62.1 °F 30.00 in Calm     90% 0.00 in 0 W/m2
23:28 65.0 °F 62.0 °F 30.01 in Calm     90% 0.00 in 0 W/m2
23:34 64.8 °F 61.8 °F 30.00 in Calm     90% 0.00 in 0 W/m2
23:40 64.7 °F 62.0 °F 30.00 in Calm     91% 0.00 in 0 W/m2
23:46 64.6 °F 61.9 °F 30.01 in Calm     91% 0.00 in 0 W/m2
23:52 64.5 °F 61.8 °F 30.01 in Calm     91% 0.00 in 0 W/m2
23:58 64.4 °F 61.7 °F 30.02 in Calm     91% 0.00 in 0 W/m2
Country Meadow, Clay, NY, USA
Compliments of Weather Underground - 2 mb